Time;durP1;ratioP1;P1;durP2;ratioP2;P2;SDS_P1;SDS_P2;PMS_P1;PMS_P2;Temp;Humidity;BMP_temperature;BMP_pressure;BME280_temperature;BME280_humidity;BME280_pressure;Samples;Min_cycle;Max_cycle;Signal;HPM_P1;HPM_P2
2021/10/13 00:00:18;;;;;;;603.75;571.20;;;;;;;9.42;54.94;101222.03;687922;28;21516;-67
2021/10/13 00:00:40;;;;;;;603.88;570.97;;;;;;;9.39;55.07;101225.91;688038;28;22389;-67
2021/10/13 00:01:02;;;;;;;544.72;514.95;;;;;;;9.38;55.03;101216.13;687257;28;46305;-66
2021/10/13 00:01:23;;;;;;;523.38;494.38;;;;;;;9.40;55.20;101226.75;687472;28;46389;-67
2021/10/13 00:01:44;;;;;;;549.47;519.05;;;;;;;9.41;55.17;101218.50;688468;28;22407;-67
2021/10/13 00:02:06;;;;;;;549.63;519.25;;;;;;;9.42;55.27;101222.03;688264;28;21539;-67
2021/10/13 00:02:27;;;;;;;529.25;499.92;;;;;;;9.44;55.30;101228.13;687525;28;46282;-67
2021/10/13 00:02:48;;;;;;;548.13;518.45;;;;;;;9.40;55.21;101222.19;688703;28;21515;-67
2021/10/13 00:03:09;;;;;;;540.15;511.45;;;;;;;9.42;55.04;101225.59;688287;28;23464;-67
2021/10/13 00:03:31;;;;;;;540.22;510.98;;;;;;;9.42;54.88;101227.41;688951;28;23451;-67
2021/10/13 00:03:52;;;;;;;582.78;550.58;;;;;;;9.41;55.20;101225.75;688015;28;34156;-67
2021/10/13 00:04:13;;;;;;;558.80;527.78;;;;;;;9.43;55.22;101215.63;688888;28;9308;-67
2021/10/13 00:04:34;;;;;;;544.53;514.30;;;;;;;9.43;54.99;101229.13;688357;28;22160;-67
2021/10/13 00:04:55;;;;;;;577.80;545.65;;;;;;;9.42;54.99;101230.13;687859;28;21520;-67
2021/10/13 00:05:18;;;;;;;579.53;547.67;;;;;;;9.41;55.11;101231.13;688101;28;23441;-67
2021/10/13 00:05:39;;;;;;;575.28;544.60;;;;;;;9.39;55.22;101228.59;687660;28;44549;-66
2021/10/13 00:06:00;;;;;;;575.67;544.92;;;;;;;9.39;55.07;101234.00;691505;28;4277;-67
2021/10/13 00:06:21;;;;;;;610.55;577.67;;;;;;;9.36;55.12;101226.22;690710;28;22186;-67
2021/10/13 00:06:42;;;;;;;598.53;566.17;;;;;;;9.32;55.14;101228.34;691015;28;23478;-67
2021/10/13 00:07:03;;;;;;;601.53;569.13;;;;;;;9.30;54.92;101230.38;691275;28;22387;-67
2021/10/13 00:07:25;;;;;;;590.00;558.25;;;;;;;9.30;55.00;101226.84;690751;28;22404;-67
2021/10/13 00:07:46;;;;;;;600.22;567.83;;;;;;;9.28;55.39;101227.00;688696;28;45226;-67
2021/10/13 00:08:07;;;;;;;600.95;568.55;;;;;;;9.31;55.16;101233.91;685724;28;21538;-67
2021/10/13 00:08:28;;;;;;;568.92;538.22;;;;;;;9.30;55.39;101227.69;684814;28;46316;-67
2021/10/13 00:08:50;;;;;;;566.60;536.22;;;;;;;9.27;55.31;101228.00;685065;28;22423;-67
2021/10/13 00:09:11;;;;;;;577.00;546.10;;;;;;;9.28;55.42;101227.00;684806;28;46338;-67
2021/10/13 00:09:32;;;;;;;551.30;521.58;;;;;;;9.29;55.37;101234.06;685489;28;21674;-66
2021/10/13 00:09:54;;;;;;;592.13;559.35;;;;;;;9.29;55.53;101236.75;685381;28;22381;-66
2021/10/13 00:10:16;;;;;;;589.85;557.00;;;;;;;9.27;55.34;101222.59;686587;28;1520;-66
2021/10/13 00:10:37;;;;;;;574.00;542.65;;;;;;;9.28;55.27;101229.69;684611;28;45233;-66
2021/10/13 00:10:58;;;;;;;628.00;593.85;;;;;;;9.28;55.28;101229.69;685103;28;24414;-66
2021/10/13 00:11:20;;;;;;;628.67;594.55;;;;;;;9.28;55.43;101227.00;685763;28;21355;-66
2021/10/13 00:11:41;;;;;;;598.00;565.85;;;;;;;9.29;55.58;101225.13;684882;28;45399;-66
2021/10/13 00:12:03;;;;;;;591.33;559.45;;;;;;;9.29;55.39;101227.84;685406;28;21497;-66
2021/10/13 00:12:24;;;;;;;630.92;596.50;;;;;;;9.30;55.33;101233.06;684948;28;46322;-66
2021/10/13 00:12:48;;;;;;;603.25;570.50;;;;;;;9.29;55.60;101228.66;684719;28;46304;-67
2021/10/13 00:13:09;;;;;;;573.50;542.85;;;;;;;9.30;55.62;101233.06;684041;28;68346;-66
2021/10/13 00:13:30;;;;;;;590.55;558.97;;;;;;;9.29;55.62;101234.06;685661;28;23259;-67
2021/10/13 00:13:51;;;;;;;596.30;564.22;;;;;;;9.29;55.43;101230.53;684899;28;22387;-67
2021/10/13 00:14:13;;;;;;;599.03;566.40;;;;;;;9.27;55.44;101229.84;685727;28;22389;-67
2021/10/13 00:14:34;;;;;;;626.13;591.47;;;;;;;9.26;55.36;101233.53;684878;28;44026;-67
2021/10/13 00:14:56;;;;;;;603.20;569.72;;;;;;;9.26;55.54;101236.22;685153;28;22407;-67
2021/10/13 00:15:17;;;;;;;577.92;545.63;;;;;;;9.27;55.62;101235.25;684164;28;69432;-67
2021/10/13 00:15:40;;;;;;;598.03;564.47;;;;;;;9.26;55.58;101233.53;685705;28;22403;-67
2021/10/13 00:16:03;;;;;;;588.60;555.70;;;;;;;9.27;55.61;101238.78;686678;28;46185;-67
2021/10/13 00:16:25;;;;;;;591.10;557.83;;;;;;;9.25;55.62;101230.00;685858;28;92520;-67
2021/10/13 00:16:52;;;;;;;612.65;577.90;;;;;;;9.28;55.52;101236.91;689863;28;23479;-67
2021/10/13 00:17:16;;;;;;;579.60;547.13;;;;;;;9.26;55.52;101234.38;684553;28;136136;-67
2021/10/13 00:17:38;;;;;;;591.13;558.05;;;;;;;9.24;55.63;101238.25;688436;28;22418;-68
2021/10/13 00:17:59;;;;;;;598.65;565.05;;;;;;;9.24;55.34;101238.25;688120;28;40217;-67
2021/10/13 00:18:20;;;;;;;574.08;542.20;;;;;;;9.24;55.64;101233.69;688919;28;22369;-67
2021/10/13 00:18:41;;;;;;;598.78;565.33;;;;;;;9.24;55.57;101231.00;688846;28;21508;-67
2021/10/13 00:19:04;;;;;;;597.22;563.88;;;;;;;9.22;55.50;101240.25;689651;28;22420;-67
2021/10/13 00:19:27;;;;;;;567.03;535.53;;;;;;;9.22;55.87;101233.00;687572;28;67620;-67
2021/10/13 00:19:48;;;;;;;593.22;559.97;;;;;;;9.22;55.84;101238.41;687311;28;70190;-67
2021/10/13 00:20:10;;;;;;;595.90;562.63;;;;;;;9.23;55.77;101234.69;688665;28;22403;-67
2021/10/13 00:20:32;;;;;;;573.70;541.80;;;;;;;9.21;55.95;101236.69;688305;28;46511;-67
2021/10/13 00:20:53;;;;;;;606.25;572.15;;;;;;;9.23;55.62;101240.06;687682;28;44388;-67
2021/10/13 00:21:14;;;;;;;612.47;578.22;;;;;;;9.22;55.84;101243.78;688717;28;22228;-67
2021/10/13 00:21:35;;;;;;;591.95;559.03;;;;;;;9.20;55.72;101237.72;688720;28;23399;-67
2021/10/13 00:21:56;;;;;;;589.35;557.33;;;;;;;9.20;55.88;101238.56;689097;28;23477;-66
2021/10/13 00:22:19;;;;;;;585.33;553.83;;;;;;;9.21;55.68;101242.09;688368;28;22470;-67
2021/10/13 00:22:40;;;;;;;541.35;512.22;;;;;;;9.20;55.72;101235.88;687550;28;59125;-67
2021/10/13 00:23:01;;;;;;;526.35;498.55;;;;;;;9.20;55.91;101233.16;688827;28;21438;-67
2021/10/13 00:23:22;;;;;;;541.50;512.90;;;;;;;9.22;55.69;101243.78;688534;28;22060;-67
2021/10/13 00:23:44;;;;;;;519.80;492.20;;;;;;;9.25;55.70;101239.91;689098;28;22397;-67
2021/10/13 00:24:05;;;;;;;533.75;505.10;;;;;;;9.22;55.95;101235.72;688664;28;46428;-67
2021/10/13 00:24:27;;;;;;;541.97;513.15;;;;;;;9.17;55.64;101233.47;689032;28;18780;-67
2021/10/13 00:24:48;;;;;;;521.40;493.77;;;;;;;9.18;55.87;101239.69;688498;28;45340;-68
2021/10/13 00:25:09;;;;;;;530.00;501.75;;;;;;;9.18;55.82;101235.19;688296;28;23515;-66
2021/10/13 00:25:31;;;;;;;562.55;532.50;;;;;;;9.17;55.63;101238.03;688266;28;22361;-66
2021/10/13 00:25:52;;;;;;;536.00;507.30;;;;;;;9.15;55.79;101243.56;687552;28;46308;-66
2021/10/13 00:26:13;;;;;;;523.25;494.98;;;;;;;9.13;55.99;101242.88;688878;28;21495;-66
2021/10/13 00:26:35;;;;;;;538.28;508.80;;;;;;;9.13;55.70;101247.41;688175;28;21520;-65
2021/10/13 00:26:56;;;;;;;513.25;484.90;;;;;;;9.12;55.90;101238.50;688080;28;46325;-66
2021/10/13 00:27:18;;;;;;;526.83;497.67;;;;;;;9.13;55.94;101248.25;686519;28;5002;-66
2021/10/13 00:27:45;;;;;;;546.33;516.05;;;;;;;9.14;55.85;101243.72;684522;28;61063;-66
2021/10/13 00:28:06;;;;;;;530.25;501.65;;;;;;;9.13;55.94;101242.03;686068;28;23343;-66
2021/10/13 00:28:27;;;;;;;515.72;487.75;;;;;;;9.14;56.02;101244.56;686937;28;20781;-66
2021/10/13 00:28:49;;;;;;;525.50;496.58;;;;;;;9.13;56.10;101237.47;688768;28;21515;-66
2021/10/13 00:29:10;;;;;;;493.45;466.20;;;;;;;9.15;56.19;101245.41;688172;28;46297;-66
2021/10/13 00:29:33;;;;;;;479.70;453.27;;;;;;;9.18;56.22;101245.97;689215;28;21255;-68
2021/10/13 00:29:55;;;;;;;511.98;483.83;;;;;;;9.19;56.19;101244.09;687425;28;37831;-66
2021/10/13 00:30:18;;;;;;;502.27;474.67;;;;;;;9.20;55.98;101245.81;688665;28;21693;-66
2021/10/13 00:30:39;;;;;;;482.90;456.33;;;;;;;9.18;56.05;101237.00;686163;28;91459;-66
2021/10/13 00:31:00;;;;;;;498.27;470.80;;;;;;;9.21;56.13;101244.78;688051;28;22242;-66
2021/10/13 00:31:21;;;;;;;489.25;462.40;;;;;;;9.19;56.06;101246.81;688724;28;22467;-67
2021/10/13 00:31:42;;;;;;;519.88;491.33;;;;;;;9.20;56.08;101243.94;689002;28;19425;-67
2021/10/13 00:32:05;;;;;;;528.35;499.40;;;;;;;9.16;55.96;101239.03;688376;28;23456;-68
2021/10/13 00:32:28;;;;;;;509.83;481.67;;;;;;;9.15;55.96;101243.56;686981;28;69110;-68
2021/10/13 00:32:49;;;;;;;561.83;530.67;;;;;;;9.13;56.03;101245.56;687228;28;68357;-68
2021/10/13 00:33:10;;;;;;;549.80;519.45;;;;;;;9.13;56.22;101248.25;687925;28;46348;-68
2021/10/13 00:33:32;;;;;;;528.30;499.70;;;;;;;9.13;56.04;101242.03;688689;28;22404;-68
2021/10/13 00:33:53;;;;;;;512.65;485.58;;;;;;;9.11;56.09;101241.34;688319;28;46274;-68
2021/10/13 00:34:15;;;;;;;520.28;492.58;;;;;;;9.12;56.21;101235.81;688256;28;23483;-68
2021/10/13 00:34:37;;;;;;;516.10;488.95;;;;;;;9.14;56.12;101244.56;688055;28;46410;-67
2021/10/13 00:34:59;;;;;;;499.33;473.02;;;;;;;9.14;56.36;101241.88;688250;28;21430;-68
2021/10/13 00:35:20;;;;;;;510.10;483.20;;;;;;;9.14;56.48;101243.72;687692;28;44429;-68
2021/10/13 00:35:41;;;;;;;494.40;468.27;;;;;;;9.17;56.38;101246.13;688988;28;22383;-67
2021/10/13 00:36:02;;;;;;;537.63;508.98;;;;;;;9.18;56.31;101247.78;688470;28;21540;-67
2021/10/13 00:36:24;;;;;;;546.72;517.70;;;;;;;9.17;56.29;101244.25;688079;28;46315;-68
2021/10/13 00:36:45;;;;;;;521.55;493.80;;;;;;;9.19;56.30;101246.81;687674;28;45228;-68
2021/10/13 00:37:06;;;;;;;497.55;471.27;;;;;;;9.22;56.09;101251.03;689256;28;21503;-67
2021/10/13 00:37:28;;;;;;;512.15;484.85;;;;;;;9.22;56.22;101248.34;688292;28;20848;-68
2021/10/13 00:37:49;;;;;;;518.03;490.50;;;;;;;9.24;56.26;101249.03;687844;28;46314;-68
2021/10/13 00:38:10;;;;;;;552.80;523.63;;;;;;;9.21;56.27;101239.41;688873;28;21538;-68
2021/10/13 00:38:31;;;;;;;553.25;523.83;;;;;;;9.24;56.14;101255.25;689147;28;22369;-68
2021/10/13 00:38:52;;;;;;;521.70;494.05;;;;;;;9.22;55.94;101251.03;688796;28;23348;-68
2021/10/13 00:39:14;;;;;;;496.63;470.48;;;;;;;9.25;56.21;101251.56;688758;28;23564;-67
2021/10/13 00:39:36;;;;;;;534.92;506.27;;;;;;;9.27;56.17;101249.56;688011;28;46282;-66
2021/10/13 00:39:57;;;;;;;524.60;496.05;;;;;;;9.26;56.28;101247.84;688725;28;22380;-68
2021/10/13 00:40:18;;;;;;;503.77;476.63;;;;;;;9.25;56.01;101248.88;689048;28;22374;-68
2021/10/13 00:40:40;;;;;;;542.38;513.55;;;;;;;9.26;56.00;101257.78;688379;28;22442;-68
2021/10/13 00:41:01;;;;;;;543.42;514.08;;;;;;;9.26;55.92;101253.25;687442;28;46328;-68
2021/10/13 00:41:22;;;;;;;510.33;482.40;;;;;;;9.25;56.20;101251.56;688820;28;22225;-68
2021/10/13 00:41:43;;;;;;;513.13;485.08;;;;;;;9.26;56.07;101247.84;689067;28;21502;-68
2021/10/13 00:42:04;;;;;;;542.20;513.30;;;;;;;9.26;56.14;101247.84;688789;28;21651;-68
2021/10/13 00:42:26;;;;;;;518.70;490.88;;;;;;;9.27;56.19;101251.41;688385;28;22392;-68
2021/10/13 00:42:47;;;;;;;496.20;469.13;;;;;;;9.27;55.96;101254.94;688146;28;46428;-68
2021/10/13 00:43:08;;;;;;;506.23;478.17;;;;;;;9.25;56.01;101254.25;688890;28;23449;-69
2021/10/13 00:43:29;;;;;;;481.73;455.15;;;;;;;9.22;55.95;101248.34;689057;28;23475;-68
2021/10/13 00:43:52;;;;;;;489.93;463.03;;;;;;;9.25;56.07;101256.97;688095;28;44355;-68
2021/10/13 00:44:13;;;;;;;515.95;487.50;;;;;;;9.26;56.32;101253.25;686499;28;89878;-68
2021/10/13 00:44:34;;;;;;;494.80;467.60;;;;;;;9.27;56.37;101254.94;689018;28;22268;-67
2021/10/13 00:44:56;;;;;;;475.42;449.30;;;;;;;9.28;56.31;101250.38;688472;28;22001;-66
2021/10/13 00:45:19;;;;;;;507.80;479.85;;;;;;;9.24;56.26;101246.34;688746;28;22524;-66
2021/10/13 00:45:40;;;;;;;497.35;469.98;;;;;;;9.26;55.99;101247.00;686144;28;69407;-68
2021/10/13 00:46:01;;;;;;;475.15;449.08;;;;;;;9.27;55.99;101252.25;688390;28;21512;-67
2021/10/13 00:46:22;;;;;;;503.98;476.13;;;;;;;9.28;55.97;101253.94;687992;28;46270;-67
2021/10/13 00:46:44;;;;;;;511.98;483.63;;;;;;;9.29;55.97;101254.78;689207;28;22393;-67
2021/10/13 00:47:06;;;;;;;487.80;461.02;;;;;;;9.29;55.91;101250.22;687890;28;45236;-68
2021/10/13 00:47:27;;;;;;;480.90;454.50;;;;;;;9.26;55.99;101247.00;688553;28;22438;-68
2021/10/13 00:47:49;;;;;;;514.45;486.13;;;;;;;9.27;55.82;101259.50;688363;28;21452;-68
2021/10/13 00:48:10;;;;;;;501.48;473.90;;;;;;;9.23;55.98;101248.16;688247;28;44919;-68
2021/10/13 00:48:31;;;;;;;504.35;476.55;;;;;;;9.24;56.21;101249.88;689114;28;22388;-68
2021/10/13 00:48:52;;;;;;;517.58;489.15;;;;;;;9.22;56.03;101249.19;688943;28;21302;-68
2021/10/13 00:49:14;;;;;;;484.25;457.80;;;;;;;9.21;56.06;101247.47;688606;28;23911;-68
2021/10/13 00:49:35;;;;;;;489.52;462.77;;;;;;;9.21;56.04;101252.88;688157;28;47677;-68
2021/10/13 00:49:56;;;;;;;525.75;496.88;;;;;;;9.22;56.06;101254.56;688691;28;22182;-68
2021/10/13 00:50:17;;;;;;;506.23;478.40;;;;;;;9.21;56.31;101255.56;688876;28;22422;-68
2021/10/13 00:50:39;;;;;;;484.70;458.13;;;;;;;9.20;56.37;101257.41;686805;28;45256;-68
2021/10/13 00:51:01;;;;;;;514.65;486.48;;;;;;;9.20;56.38;101249.34;687616;28;45383;-68
2021/10/13 00:51:22;;;;;;;505.17;477.50;;;;;;;9.22;56.36;101251.88;687921;28;22266;-68
2021/10/13 00:51:43;;;;;;;481.95;455.55;;;;;;;9.21;56.21;101250.19;688971;28;22415;-68
2021/10/13 00:52:06;;;;;;;509.13;481.17;;;;;;;9.20;56.46;101256.59;688873;28;22498;-68
2021/10/13 00:52:28;;;;;;;509.88;481.83;;;;;;;9.19;56.12;101246.81;686779;28;68071;-68
2021/10/13 00:52:49;;;;;;;479.95;453.58;;;;;;;9.20;56.23;101252.03;688047;28;46238;-68
2021/10/13 00:53:10;;;;;;;478.92;452.73;;;;;;;9.19;56.25;101244.94;688988;28;22283;-68
2021/10/13 00:53:33;;;;;;;502.30;474.88;;;;;;;9.19;56.33;101246.81;689005;28;23402;-68
2021/10/13 00:53:54;;;;;;;492.83;465.98;;;;;;;9.22;56.45;101248.34;687284;28;68103;-68
2021/10/13 00:54:15;;;;;;;476.13;450.27;;;;;;;9.22;56.37;101251.88;688839;28;21533;-68
2021/10/13 00:54:36;;;;;;;503.85;476.35;;;;;;;9.20;56.18;101243.09;689010;28;22365;-68
2021/10/13 00:54:58;;;;;;;494.58;467.73;;;;;;;9.21;56.14;101244.78;688574;28;21511;-67
2021/10/13 00:55:20;;;;;;;463.23;438.10;;;;;;;9.23;56.24;101258.94;687732;28;46334;-67
2021/10/13 00:55:41;;;;;;;489.25;463.50;;;;;;;9.24;56.25;101249.03;688397;28;45244;-68
2021/10/13 00:56:03;;;;;;;521.38;493.90;;;;;;;9.26;56.14;101249.72;688559;28;21525;-68
2021/10/13 00:56:25;;;;;;;494.77;468.65;;;;;;;9.25;56.43;101248.00;688187;28;46286;-68
2021/10/13 00:56:47;;;;;;;479.40;454.00;;;;;;;9.27;56.17;101246.03;688134;28;46288;-67
2021/10/13 00:57:08;;;;;;;498.10;472.07;;;;;;;9.29;56.37;101255.63;688060;28;44567;-68
2021/10/13 00:57:30;;;;;;;481.63;456.38;;;;;;;9.29;56.35;101252.09;687492;28;45133;-68
2021/10/13 00:57:52;;;;;;;510.27;483.27;;;;;;;9.28;56.13;101256.66;688508;28;21382;-68
2021/10/13 00:58:13;;;;;;;538.50;510.23;;;;;;;9.29;56.05;101246.69;687788;28;45254;-68
2021/10/13 00:58:34;;;;;;;513.38;486.48;;;;;;;9.25;56.25;101246.19;689242;28;24005;-68
2021/10/13 00:58:55;;;;;;;476.98;452.08;;;;;;;9.25;56.22;101253.41;687642;28;46340;-67
2021/10/13 00:59:17;;;;;;;502.80;476.30;;;;;;;9.23;56.13;101253.56;689258;28;6775;-68
2021/10/13 00:59:38;;;;;;;494.75;468.40;;;;;;;9.18;56.21;101250.47;688060;28;46250;-68
2021/10/13 00:59:59;;;;;;;476.85;451.13;;;;;;;9.18;56.22;101247.78;688956;28;22365;-68
2021/10/13 01:00:23;;;;;;;519.78;491.92;;;;;;;9.16;56.27;101247.94;688894;28;23248;-68
2021/10/13 01:00:47;;;;;;;528.45;500.63;;;;;;;9.14;56.25;101252.66;686024;28;90356;-68
2021/10/13 01:01:16;;;;;;;497.27;471.27;;;;;;;9.12;56.17;101253.78;686012;28;92079;-68
2021/10/13 01:01:43;;;;;;;542.08;513.20;;;;;;;9.07;56.46;101248.03;683767;28;160350;-68
2021/10/13 01:02:07;;;;;;;532.67;504.40;;;;;;;9.05;56.69;101250.06;684924;28;137619;-65
2021/10/13 01:02:30;;;;;;;507.10;480.38;;;;;;;9.05;56.65;101250.06;686480;28;92281;-68
2021/10/13 01:03:07;;;;;;;503.85;477.20;;;;;;;9.03;56.71;101252.91;686998;28;69405;-68
2021/10/13 01:03:34;;;;;;;499.52;472.98;;;;;;;9.02;56.77;101253.88;684158;28;160548;-68
2021/10/13 01:04:14;;;;;;;474.90;450.08;;;;;;;9.03;56.94;101255.59;684790;28;139374;-68
2021/10/13 01:04:49;;;;;;;488.90;463.17;;;;;;;9.04;56.73;101261.81;685217;28;136822;-68
2021/10/13 01:05:23;;;;;;;472.93;447.83;;;;;;;9.05;56.92;101260.81;684028;28;138316;-68
2021/10/13 01:06:02;;;;;;;500.90;474.52;;;;;;;9.06;56.72;101262.50;683874;28;158908;-68
2021/10/13 01:06:25;;;;;;;468.50;443.52;;;;;;;9.03;56.69;101258.28;685163;28;135978;-68
2021/10/13 01:06:55;;;;;;;473.27;447.67;;;;;;;9.06;56.60;101251.72;687499;28;69365;-68
2021/10/13 01:07:24;;;;;;;494.77;467.60;;;;;;;9.06;56.73;101255.28;684927;28;136030;-68
2021/10/13 01:07:52;;;;;;;499.08;472.02;;;;;;;9.03;56.91;101258.28;683945;28;137686;-68
2021/10/13 01:08:20;;;;;;;469.75;445.05;;;;;;;9.05;56.96;101258.13;684603;28;136250;-68
2021/10/13 01:08:51;;;;;;;484.35;458.08;;;;;;;9.04;56.76;101261.81;683978;28;159249;-68
2021/10/13 01:09:15;;;;;;;461.85;436.63;;;;;;;9.00;56.78;101256.72;684764;28;137988;-67
2021/10/13 01:09:41;;;;;;;490.15;463.27;;;;;;;9.03;56.93;101258.28;686574;28;91910;-68
2021/10/13 01:10:07;;;;;;;481.52;455.63;;;;;;;9.00;56.73;101254.03;684710;28;136153;-68
2021/10/13 01:10:38;;;;;;;528.15;500.10;;;;;;;8.97;56.72;101262.44;684740;28;136373;-67
2021/10/13 01:11:08;;;;;;;516.50;489.13;;;;;;;8.95;56.87;101258.19;684339;28;139060;-67
2021/10/13 01:11:39;;;;;;;478.98;453.27;;;;;;;8.93;56.97;101255.63;684952;28;137708;-68
2021/10/13 01:12:09;;;;;;;503.90;476.35;;;;;;;8.95;57.14;101264.44;684692;28;137770;-68
2021/10/13 01:12:40;;;;;;;490.98;463.92;;;;;;;8.93;57.17;101258.34;685195;28;137573;-67
2021/10/13 01:13:07;;;;;;;471.02;445.30;;;;;;;8.92;57.25;101250.41;684670;28;136098;-67
2021/10/13 01:13:37;;;;;;;494.98;467.80;;;;;;;8.91;57.08;101252.25;684183;28;160045;-67
2021/10/13 01:14:09;;;;;;;467.40;441.70;;;;;;;8.90;57.34;101260.50;685062;28;137753;-68
2021/10/13 01:14:37;;;;;;;513.25;485.00;;;;;;;8.88;57.21;101260.66;685136;28;137601;-68
2021/10/13 01:15:03;;;;;;;489.77;463.00;;;;;;;8.89;57.28;101258.81;683708;28;160074;-67
2021/10/13 01:15:29;;;;;;;470.20;444.50;;;;;;;8.86;57.46;101254.59;684832;28;138141;-68
2021/10/13 01:15:56;;;;;;;485.45;458.77;;;;;;;8.90;57.56;101258.63;684608;28;136348;-68
2021/10/13 01:16:41;;;;;;;463.92;438.52;;;;;;;8.88;57.30;101257.97;684773;28;136317;-67
2021/10/13 01:17:11;;;;;;;463.80;438.35;;;;;;;8.89;57.23;101262.34;685035;28;137476;-68
2021/10/13 01:17:36;;;;;;;495.15;468.05;;;;;;;8.91;57.42;101267.59;685132;28;137898;-68
2021/10/13 01:18:05;;;;;;;487.70;460.88;;;;;;;8.90;57.31;101257.81;684177;28;138313;-68
2021/10/13 01:18:29;;;;;;;456.58;431.75;;;;;;;8.90;57.11;101265.88;684975;28;136204;-68
2021/10/13 01:18:53;;;;;;;488.42;461.73;;;;;;;8.89;57.48;101262.34;686590;28;90327;-67
2021/10/13 01:19:23;;;;;;;479.67;453.48;;;;;;;8.90;57.32;101263.19;686636;28;90718;-68
2021/10/13 01:19:54;;;;;;;473.63;447.60;;;;;;;8.88;57.19;101265.19;684550;28;137954;-67
2021/10/13 01:20:29;;;;;;;499.75;472.25;;;;;;;8.86;57.50;101265.34;681194;28;156403;-68
2021/10/13 01:20:57;;;;;;;473.63;447.67;;;;;;;8.85;57.49;101263.66;681176;28;160683;-68
2021/10/13 01:21:29;;;;;;;504.63;477.02;;;;;;;8.83;57.44;101260.28;681955;28;138026;-68
2021/10/13 01:22:01;;;;;;;474.15;448.23;;;;;;;8.83;57.52;101262.97;682479;28;136123;-68
2021/10/13 01:22:39;;;;;;;480.55;454.33;;;;;;;8.81;57.39;101265.81;682539;28;138445;-68
2021/10/13 01:23:13;;;;;;;491.95;465.05;;;;;;;8.81;57.49;101271.19;681706;28;137907;-67
2021/10/13 01:24:20;;;;;;;460.35;435.25;;;;;;;8.80;57.63;101268.66;682275;28;137726;-68
2021/10/13 01:24:49;;;;;;;462.15;437.10;;;;;;;8.80;57.61;101268.66;682836;28;137005;-68
2021/10/13 01:25:18;;;;;;;484.48;458.00;;;;;;;8.78;57.58;101263.41;684983;28;137975;-68
2021/10/13 01:25:47;;;;;;;467.75;442.27;;;;;;;8.80;57.81;101271.34;685757;28;137729;-67
2021/10/13 01:26:15;;;;;;;477.42;451.38;;;;;;;8.80;57.83;101269.50;681910;28;157692;-67
2021/10/13 01:26:41;;;;;;;477.45;451.55;;;;;;;8.81;57.80;101267.66;681598;28;160827;-67
2021/10/13 01:27:18;;;;;;;458.05;433.10;;;;;;;8.82;57.81;101272.03;683825;28;137981;-68
2021/10/13 01:27:53;;;;;;;482.85;456.42;;;;;;;8.80;57.66;101266.81;683875;28;62463;-67
2021/10/13 01:28:17;;;;;;;459.70;434.70;;;;;;;8.76;57.71;101268.13;682180;28;137916;-67
2021/10/13 01:28:42;;;;;;;469.75;444.27;;;;;;;8.78;57.71;101263.41;683357;28;92296;-67
2021/10/13 01:29:08;;;;;;;475.85;450.08;;;;;;;8.86;57.67;101269.91;682832;28;114838;-68
2021/10/13 01:29:30;;;;;;;452.90;428.30;;;;;;;8.86;57.71;101268.06;681682;28;136639;-68
2021/10/13 01:29:52;;;;;;;468.95;443.48;;;;;;;8.84;57.77;101267.38;685802;28;46377;-67
2021/10/13 01:30:14;;;;;;;453.83;429.17;;;;;;;8.82;57.77;101267.50;684717;28;65510;-68
2021/10/13 01:30:39;;;;;;;500.08;473.42;;;;;;;8.81;57.77;101267.66;685210;28;46711;-68
2021/10/13 01:31:05;;;;;;;495.98;469.98;;;;;;;8.81;57.65;101260.44;682194;28;115138;-68
2021/10/13 01:31:29;;;;;;;466.15;441.63;;;;;;;8.80;57.69;101263.28;682147;28;139067;-67
2021/10/13 01:31:52;;;;;;;492.35;466.65;;;;;;;8.78;57.65;101263.41;683441;28;115088;-68
2021/10/13 01:32:18;;;;;;;475.90;450.88;;;;;;;8.79;57.68;101261.56;684716;28;69098;-67
2021/10/13 01:32:40;;;;;;;487.75;462.10;;;;;;;8.82;57.88;101270.22;682568;28;138153;-68
2021/10/13 01:33:03;;;;;;;511.67;484.95;;;;;;;8.82;57.66;101272.03;686324;28;21521;-68
2021/10/13 01:33:27;;;;;;;482.33;456.88;;;;;;;8.81;57.70;101263.13;683867;28;90746;-68
2021/10/13 01:33:53;;;;;;;453.40;429.25;;;;;;;8.83;57.90;101262.97;684897;28;69382;-68
2021/10/13 01:34:22;;;;;;;466.88;441.50;;;;;;;8.83;57.86;101265.66;682321;28;137908;-68
2021/10/13 01:34:45;;;;;;;452.35;427.55;;;;;;;8.80;57.71;101268.66;682200;28;136190;-68
2021/10/13 01:35:07;;;;;;;460.17;435.08;;;;;;;8.76;57.86;101267.25;684292;28;67483;-68
2021/10/13 01:35:30;;;;;;;477.67;451.52;;;;;;;8.73;57.68;101264.88;685291;28;46368;-68
2021/10/13 01:35:55;;;;;;;452.25;427.58;;;;;;;8.72;57.88;101272.09;684194;28;69380;-68
2021/10/13 01:36:26;;;;;;;451.70;427.02;;;;;;;8.73;58.05;101270.25;683821;28;113559;-67
2021/10/13 01:36:52;;;;;;;447.70;423.40;;;;;;;8.72;57.94;101271.28;681956;28;158511;-67
2021/10/13 01:37:16;;;;;;;476.40;450.50;;;;;;;8.74;57.99;101272.78;682032;28;136303;-68
2021/10/13 01:37:40;;;;;;;465.20;439.98;;;;;;;8.72;57.95;101264.03;682273;28;115071;-68
2021/10/13 01:38:07;;;;;;;450.52;426.70;;;;;;;8.71;58.21;101265.03;683967;28;69668;-68
2021/10/13 01:38:31;;;;;;;473.83;449.02;;;;;;;8.70;58.14;101270.56;682267;28;137869;-68
2021/10/13 01:38:54;;;;;;;467.33;443.05;;;;;;;8.69;58.10;101274.28;683807;28;91992;-67
2021/10/13 01:39:16;;;;;;;450.50;426.98;;;;;;;8.72;58.09;101277.50;684135;28;69336;-67
2021/10/13 01:39:40;;;;;;;473.77;449.10;;;;;;;8.71;58.24;101273.09;684987;28;45268;-67
2021/10/13 01:40:02;;;;;;;456.52;432.52;;;;;;;8.72;58.06;101271.28;682527;28;114984;-67
2021/10/13 01:40:29;;;;;;;450.40;426.80;;;;;;;8.73;58.12;101278.34;685393;28;44161;-68
2021/10/13 01:40:53;;;;;;;480.92;455.73;;;;;;;8.75;58.14;101276.34;681839;28;137610;-68
2021/10/13 01:41:16;;;;;;;449.98;426.17;;;;;;;8.74;58.23;101278.19;683265;28;90325;-67
2021/10/13 01:41:38;;;;;;;448.77;425.23;;;;;;;8.74;58.25;101280.88;684102;28;69073;-67
2021/10/13 01:42:03;;;;;;;469.40;444.83;;;;;;;8.74;58.17;101277.34;685426;28;46409;-68
2021/10/13 01:42:29;;;;;;;439.90;416.77;;;;;;;8.72;58.19;101280.19;683173;28;114927;-68
2021/10/13 01:42:52;;;;;;;444.85;421.40;;;;;;;8.76;58.17;101278.03;682234;28;138885;-68
2021/10/13 01:43:14;;;;;;;464.08;439.05;;;;;;;8.75;58.27;101276.34;684356;28;69290;-68
2021/10/13 01:43:37;;;;;;;441.02;417.00;;;;;;;8.76;58.14;101284.28;686291;28;22421;-68
2021/10/13 01:43:59;;;;;;;443.33;419.20;;;;;;;8.74;58.27;101283.56;684440;28;92296;-68
2021/10/13 01:44:22;;;;;;;466.52;441.10;;;;;;;8.72;58.16;101282.03;685326;28;46306;-67
2021/10/13 01:44:46;;;;;;;438.98;415.05;;;;;;;8.72;58.27;101274.81;685066;28;46308;-67
2021/10/13 01:45:08;;;;;;;431.48;407.95;;;;;;;8.73;58.18;101281.91;682984;28;114788;-68
2021/10/13 01:45:29;;;;;;;452.35;427.60;;;;;;;8.73;58.31;101283.72;685777;28;22173;-68
2021/10/13 01:45:52;;;;;;;435.35;411.45;;;;;;;8.72;58.26;101274.81;685716;28;21276;-68
2021/10/13 01:46:15;;;;;;;439.27;415.25;;;;;;;8.75;58.15;101287.13;684931;28;69436;-68
2021/10/13 01:46:36;;;;;;;465.15;439.48;;;;;;;8.75;58.43;101279.88;684246;28;69473;-68
2021/10/13 01:46:58;;;;;;;446.90;422.75;;;;;;;8.73;58.26;101278.34;685446;28;45175;-68
2021/10/13 01:47:21;;;;;;;429.98;407.42;;;;;;;8.71;58.09;101281.19;685370;28;45028;-68
2021/10/13 01:47:44;;;;;;;440.88;417.05;;;;;;;8.73;58.19;101283.72;684117;28;67268;-67